Time;durP1;ratioP1;P1;durP2;ratioP2;P2;SDS_P1;SDS_P2;PMS_P1;PMS_P2;Temp;Humidity;BMP_temperature;BMP_pressure;BME280_temperature;BME280_humidity;BME280_pressure;Samples;Min_cycle;Max_cycle;Signal;HPM_P1;HPM_P2
2023/08/29 00:01:02;;;;;;;;;;;12.50;99.90;;;;;;5083994;28;20051;-62
2023/08/29 00:03:42;;;;;;;5.93;2.22;;;12.60;99.90;;;;;;5086338;28;19922;-60
2023/08/29 00:06:23;;;;;;;8.10;1.90;;;12.60;99.90;;;;;;5088847;28;20044;-62
2023/08/29 00:09:04;;;;;;;4.78;1.50;;;12.60;99.90;;;;;;5089936;28;20771;-62
2023/08/29 00:11:44;;;;;;;4.63;1.60;;;12.60;99.90;;;;;;5091391;28;20032;-62
2023/08/29 00:14:10;;;;;;;;;;;12.60;99.90;;;;;;5093050;28;20052;-61
2023/08/29 00:16:36;;;;;;;4.70;1.55;;;12.60;99.90;;;;;;5088885;28;19912;-60
2023/08/29 00:19:01;;;;;;;;;;;12.50;99.90;;;;;;5076304;28;20032;-60
2023/08/29 00:21:27;;;;;;;7.55;1.92;;;12.50;99.90;;;;;;5074902;28;20011;-60
2023/08/29 00:23:52;;;;;;;;;;;12.30;99.90;;;;;;5076829;28;20063;-61
2023/08/29 00:26:18;;;;;;;8.40;1.95;;;12.30;99.90;;;;;;5077622;28;19934;-60
2023/08/29 00:28:44;;;;;;;;;;;12.40;99.90;;;;;;5082701;28;20062;-61
2023/08/29 00:31:10;;;;;;;7.88;2.30;;;12.30;99.90;;;;;;5073091;28;20303;-61
2023/08/29 00:33:36;;;;;;;6.38;2.05;;;12.40;99.90;;;;;;5077042;28;20024;-60
2023/08/29 00:36:01;;;;;;;;;;;12.40;99.90;;;;;;5072283;28;20040;-59
2023/08/29 00:38:27;;;;;;;4.28;1.80;;;12.40;99.90;;;;;;5083408;28;19916;-60
2023/08/29 00:40:53;;;;;;;;;;;12.40;99.90;;;;;;5078925;28;20033;-59
2023/08/29 00:43:18;;;;;;;11.95;2.20;;;12.40;99.90;;;;;;5065062;28;20420;-61
2023/08/29 00:45:44;;;;;;;;;;;12.40;99.90;;;;;;5075668;28;20050;-60
2023/08/29 00:48:12;;;;;;;5.78;2.10;;;12.40;99.90;;;;;;5076430;28;20002;-61
2023/08/29 00:50:38;;;;;;;4.80;1.98;;;12.30;99.90;;;;;;5096499;28;20036;-61
2023/08/29 00:53:04;;;;;;;;;;;12.30;99.90;;;;;;5091969;28;20129;-61
2023/08/29 00:55:31;;;;;;;5.28;2.47;;;12.20;99.90;;;;;;5072596;28;20028;-61
2023/08/29 00:57:59;;;;;;;12.85;2.75;;;12.20;99.90;;;;;;5066907;28;20053;-61
2023/08/29 01:00:30;;;;;;;9.50;2.33;;;12.20;99.90;;;;;;5082420;28;20745;-62
2023/08/29 01:02:56;;;;;;;3.00;1.70;;;12.20;99.90;;;;;;5064077;28;20595;-60
2023/08/29 01:05:22;;;;;;;9.35;2.13;;;12.20;99.90;;;;;;5070485;28;20715;-61
2023/08/29 01:07:49;;;;;;;;;;;12.20;99.90;;;;;;5070856;28;20043;-61
2023/08/29 01:10:15;;;;;;;3.30;2.40;;;12.20;99.90;;;;;;5075983;28;19916;-60
2023/08/29 01:12:49;;;;;;;;;;;12.10;99.90;;;;;;5082249;28;20032;-62
2023/08/29 01:15:23;;;;;;;6.13;2.40;;;12.10;99.90;;;;;;5078405;28;19917;-61
2023/08/29 01:17:53;;;;;;;5.15;2.47;;;12.10;99.90;;;;;;5075857;28;20076;-62
2023/08/29 01:20:21;;;;;;;7.05;2.35;;;12.10;99.90;;;;;;5083219;28;20039;-61
2023/08/29 01:23:18;;;;;;;11.75;2.30;;;12.10;99.90;;;;;;5069784;28;20041;-61
2023/08/29 01:26:22;;;;;;;9.23;2.50;;;12.10;99.90;;;;;;5074061;28;20072;-61
2023/08/29 01:28:49;;;;;;;8.75;3.22;;;12.20;99.90;;;;;;5014070;28;20117;-61
2023/08/29 01:31:16;;;;;;;5.20;2.58;;;12.20;99.90;;;;;;5014530;28;20059;-61
2023/08/29 01:33:42;;;;;;;4.53;2.20;;;12.20;99.90;;;;;;5040312;28;20056;-61
2023/08/29 01:36:08;;;;;;;5.00;2.47;;;12.30;99.90;;;;;;5077165;28;20036;-60
2023/08/29 01:38:34;;;;;;;;;;;12.20;99.90;;;;;;5092480;28;20030;-60
2023/08/29 01:40:59;;;;;;;3.20;2.20;;;12.20;99.90;;;;;;5079778;28;20426;-60
2023/08/29 01:43:25;;;;;;;;;;;12.20;99.90;;;;;;5083776;28;20680;-60
2023/08/29 01:45:50;;;;;;;4.10;2.33;;;12.20;99.90;;;;;;5083872;28;19924;-61
2023/08/29 01:48:16;;;;;;;;;;;12.20;99.90;;;;;;5076048;28;20487;-60
2023/08/29 01:50:42;;;;;;;3.38;2.60;;;12.20;99.90;;;;;;5075092;28;19965;-61
2023/08/29 01:53:08;;;;;;;;;;;12.10;99.90;;;;;;5078022;28;20040;-61
2023/08/29 01:55:34;;;;;;;5.78;2.17;;;12.20;99.90;;;;;;5083599;28;19923;-61
2023/08/29 01:58:02;;;;;;;5.55;2.17;;;12.20;99.90;;;;;;5082486;28;20047;-61
2023/08/29 02:00:30;;;;;;;4.57;2.85;;;12.10;99.90;;;;;;5073963;28;20046;-62
2023/08/29 02:02:56;;;;;;;3.78;2.05;;;12.10;99.90;;;;;;5078177;28;20046;-61
2023/08/29 02:05:21;;;;;;;;;;;12.10;99.90;;;;;;5083887;28;20036;-60
2023/08/29 02:07:48;;;;;;;5.03;2.45;;;12.20;99.90;;;;;;5073635;28;19927;-61
2023/08/29 02:10:14;;;;;;;5.00;2.20;;;12.20;99.90;;;;;;5078193;28;20086;-60
2023/08/29 02:12:40;;;;;;;;;;;12.10;99.90;;;;;;5082892;28;20032;-59
2023/08/29 02:15:06;;;;;;;4.30;2.50;;;12.20;99.90;;;;;;5071499;28;19912;-61
2023/08/29 02:17:33;;;;;;;3.30;2.45;;;12.20;99.90;;;;;;5071881;28;20036;-61
2023/08/29 02:19:59;;;;;;;3.13;2.03;;;12.10;99.90;;;;;;5080718;28;20067;-61
2023/08/29 02:22:24;;;;;;;;;;;12.10;99.90;;;;;;5074674;28;20040;-61
2023/08/29 02:24:50;;;;;;;6.18;2.22;;;12.10;99.90;;;;;;5074883;28;20322;-61
2023/08/29 02:27:15;;;;;;;11.07;2.50;;;12.10;99.90;;;;;;5080852;28;20131;-61
2023/08/29 02:29:41;;;;;;;;;;;12.10;99.90;;;;;;5082253;28;20119;-61
2023/08/29 02:32:07;;;;;;;4.25;2.17;;;12.10;99.90;;;;;;5045880;28;19923;-59
2023/08/29 02:34:33;;;;;;;3.78;2.58;;;12.10;99.90;;;;;;5058413;28;20325;-61
2023/08/29 02:36:58;;;;;;;;;;;12.10;99.90;;;;;;5062040;28;20036;-61
2023/08/29 02:39:24;;;;;;;7.40;3.00;;;12.10;99.90;;;;;;5062147;28;19912;-60
2023/08/29 02:41:49;;;;;;;;;;;12.10;99.90;;;;;;5061425;28;20036;-60
2023/08/29 02:44:15;;;;;;;6.22;1.85;;;12.10;99.90;;;;;;5054512;28;20565;-61
2023/08/29 02:46:41;;;;;;;7.10;2.22;;;12.10;99.90;;;;;;5060916;28;20052;-61
2023/08/29 02:49:07;;;;;;;;;;;12.10;99.90;;;;;;5059419;28;20635;-62
2023/08/29 02:51:32;;;;;;;4.55;2.50;;;12.00;99.90;;;;;;5056181;28;19916;-62
2023/08/29 02:53:58;;;;;;;;;;;12.00;99.90;;;;;;5053350;28;20094;-62
2023/08/29 02:56:24;;;;;;;7.15;2.10;;;12.10;99.90;;;;;;5062701;28;19920;-62
2023/08/29 02:58:50;;;;;;;3.05;2.38;;;12.10;99.90;;;;;;5053895;28;20067;-62
2023/08/29 03:01:16;;;;;;;2.53;2.05;;;12.10;99.90;;;;;;5068170;28;20532;-62
2023/08/29 03:03:42;;;;;;;;;;;12.00;99.90;;;;;;5073060;28;20035;-61
2023/08/29 03:06:07;;;;;;;4.50;2.13;;;12.10;99.90;;;;;;5074022;28;19924;-62
2023/08/29 03:08:33;;;;;;;;;;;12.10;99.90;;;;;;5076678;28;20843;-62
2023/08/29 03:11:05;;;;;;;3.67;1.98;;;12.10;99.90;;;;;;5078821;28;19916;-62
2023/08/29 03:13:32;;;;;;;3.65;2.33;;;12.00;99.90;;;;;;5071540;28;20036;-62
2023/08/29 03:15:59;;;;;;;5.35;1.80;;;12.10;99.90;;;;;;5061932;28;20051;-59
2023/08/29 03:18:27;;;;;;;5.80;2.17;;;12.00;99.90;;;;;;5079431;28;20084;-60
2023/08/29 03:20:59;;;;;;;5.95;2.00;;;12.00;99.90;;;;;;5047973;28;20044;-60
2023/08/29 03:23:25;;;;;;;7.72;2.42;;;12.00;99.90;;;;;;5077631;28;20553;-58
2023/08/29 03:26:01;;;;;;;;;;;12.00;99.90;;;;;;5063153;28;20144;-60
2023/08/29 03:28:26;;;;;;;8.73;2.85;;;11.90;99.90;;;;;;5076688;28;19963;-60
2023/08/29 03:30:52;;;;;;;;;;;11.90;99.90;;;;;;5070236;28;20074;-58
2023/08/29 03:33:17;;;;;;;7.07;2.72;;;12.00;99.90;;;;;;5081623;28;19926;-60
2023/08/29 03:35:43;;;;;;;7.80;2.85;;;11.90;99.90;;;;;;5082787;28;20514;-60
2023/08/29 03:38:09;;;;;;;;;;;11.90;99.90;;;;;;5063054;28;20048;-61
2023/08/29 03:40:35;;;;;;;4.97;2.67;;;11.90;99.90;;;;;;5069307;28;20563;-63
2023/08/29 03:43:00;;;;;;;;;;;11.90;99.90;;;;;;5082150;28;20040;-61
2023/08/29 03:45:26;;;;;;;5.47;2.63;;;11.90;99.90;;;;;;5082653;28;19920;-62
2023/08/29 03:47:52;;;;;;;;;;;11.90;99.90;;;;;;5071927;28;20796;-61
2023/08/29 03:50:19;;;;;;;5.55;2.40;;;11.90;99.90;;;;;;5072869;28;19923;-61
2023/08/29 03:52:44;;;;;;;3.75;2.50;;;11.80;99.90;;;;;;5076623;28;20032;-61
2023/08/29 03:55:10;;;;;;;;;;;11.80;99.90;;;;;;5077993;28;20042;-58
2023/08/29 03:57:35;;;;;;;6.38;2.95;;;11.90;99.90;;;;;;5075174;28;20450;-60
2023/08/29 04:00:06;;;;;;;;;;;11.80;99.90;;;;;;5070888;28;20029;-60
2023/08/29 04:02:32;;;;;;;6.95;2.55;;;11.80;99.90;;;;;;5067600;28;19916;-60
2023/08/29 04:05:09;;;;;;;;;;;11.80;99.90;;;;;;5075474;28;20037;-59
2023/08/29 04:07:36;;;;;;;6.68;2.58;;;11.90;99.90;;;;;;5073444;28;19920;-58
2023/08/29 04:10:03;;;;;;;3.30;2.17;;;11.90;99.90;;;;;;5073955;28;20044;-60
2023/08/29 04:12:29;;;;;;;2.75;2.28;;;11.90;99.90;;;;;;5070472;28;20045;-60
2023/08/29 04:14:55;;;;;;;;;;;11.90;99.90;;;;;;5074338;28;20059;-61
2023/08/29 04:17:21;;;;;;;5.57;2.10;;;11.80;99.90;;;;;;5081259;28;20385;-61
2023/08/29 04:19:47;;;;;;;;;;;11.90;99.90;;;;;;5079929;28;20121;-60
2023/08/29 04:22:15;;;;;;;11.63;2.17;;;11.80;99.90;;;;;;5076456;28;20070;-61
2023/08/29 04:24:41;;;;;;;3.05;2.00;;;11.80;99.90;;;;;;5077484;28;20033;-56
2023/08/29 04:27:06;;;;;;;;;;;11.90;99.90;;;;;;5067962;28;20081;-60
2023/08/29 04:29:32;;;;;;;3.13;2.30;;;11.90;99.90;;;;;;5073277;28;19920;-60
2023/08/29 04:31:57;;;;;;;;;;;11.80;99.90;;;;;;5074564;28;20751;-60
2023/08/29 04:34:23;;;;;;;4.07;2.42;;;11.80;99.90;;;;;;5086505;28;19920;-57
2023/08/29 04:36:49;;;;;;;;;;;11.80;99.90;;;;;;5086857;28;20423;-62
2023/08/29 04:39:14;;;;;;;7.53;2.25;;;11.80;99.90;;;;;;5078054;28;20565;-61
2023/08/29 04:41:40;;;;;;;;;;;11.80;99.90;;;;;;5085157;28;20465;-62
2023/08/29 04:44:05;;;;;;;9.40;2.50;;;11.80;99.90;;;;;;5069375;28;19924;-61
2023/08/29 04:46:31;;;;;;;;;;;11.80;99.90;;;;;;5072816;28;20040;-61
2023/08/29 04:48:57;;;;;;;5.43;2.35;;;11.90;99.90;;;;;;5076477;28;20475;-62
2023/08/29 04:51:23;;;;;;;;;;;11.80;99.90;;;;;;5076817;28;20040;-61
2023/08/29 04:53:48;;;;;;;5.45;2.65;;;11.80;99.90;;;;;;5079841;28;19963;-61
2023/08/29 04:56:14;;;;;;;;;;;11.90;99.90;;;;;;5084429;28;20144;-60
2023/08/29 04:58:40;;;;;;;6.63;2.80;;;11.80;99.90;;;;;;5080051;28;19920;-61
2023/08/29 05:01:06;;;;;;;3.92;2.78;;;11.90;99.90;;;;;;5079638;28;20044;-61
2023/08/29 05:03:32;;;;;;;;;;;11.80;99.90;;;;;;5070602;28;20036;-61
2023/08/29 05:05:58;;;;;;;3.50;2.70;;;11.80;99.90;;;;;;5085090;28;19924;-62
2023/08/29 05:08:23;;;;;;;;;;;11.90;99.90;;;;;;5077477;28;20043;-61
2023/08/29 05:10:49;;;;;;;9.25;2.60;;;11.90;99.90;;;;;;5076459;28;19927;-62
2023/08/29 05:13:15;;;;;;;7.78;2.95;;;11.90;99.90;;;;;;5072301;28;20110;-62
2023/08/29 05:15:41;;;;;;;;;;;11.90;99.90;;;;;;5079921;28;20066;-62
2023/08/29 05:18:07;;;;;;;7.95;2.78;;;11.90;99.90;;;;;;5080293;28;20303;-62
2023/08/29 05:20:32;;;;;;;;;;;11.90;99.90;;;;;;5081079;28;20040;-62
2023/08/29 05:22:59;;;;;;;6.57;2.50;;;11.90;99.90;;;;;;5083752;28;19919;-63
2023/08/29 05:25:24;;;;;;;4.53;2.90;;;11.90;99.90;;;;;;5077127;28;20051;-61
2023/08/29 05:27:50;;;;;;;;;;;11.90;99.90;;;;;;5082586;28;20044;-65
2023/08/29 05:30:16;;;;;;;7.18;3.28;;;11.90;99.90;;;;;;5073265;28;19916;-65
2023/08/29 05:32:42;;;;;;;4.95;2.80;;;11.90;99.90;;;;;;5080069;28;20040;-65
2023/08/29 05:35:08;;;;;;;;;;;11.90;99.90;;;;;;5084063;28;20093;-64
2023/08/29 05:37:33;;;;;;;8.15;3.22;;;11.90;99.90;;;;;;5084400;28;20370;-62
2023/08/29 05:39:59;;;;;;;5.15;3.13;;;12.00;99.90;;;;;;5076549;28;20055;-63
2023/08/29 05:42:25;;;;;;;7.57;2.60;;;12.00;99.90;;;;;;5080417;28;20693;-64
2023/08/29 05:44:51;;;;;;;5.00;3.13;;;12.00;99.90;;;;;;5078927;28;20885;-64
2023/08/29 05:47:17;;;;;;;;;;;12.00;99.90;;;;;;5068045;28;20044;-64
2023/08/29 05:49:42;;;;;;;4.30;2.58;;;12.10;99.90;;;;;;5080290;28;20378;-63
2023/08/29 05:52:08;;;;;;;;;;;12.10;99.90;;;;;;5077441;28;20440;-62
2023/08/29 05:54:36;;;;;;;6.13;2.95;;;12.10;99.90;;;;;;5065037;28;19923;-61
2023/08/29 05:57:03;;;;;;;6.88;3.58;;;12.20;99.90;;;;;;5080416;28;20156;-64
2023/08/29 05:59:29;;;;;;;6.30;3.72;;;12.20;99.90;;;;;;5079085;28;20051;-63
2023/08/29 06:01:54;;;;;;;;;;;12.30;99.90;;;;;;5061841;28;20037;-62
2023/08/29 06:04:20;;;;;;;8.77;3.60;;;12.30;99.90;;;;;;5069879;28;19912;-62
2023/08/29 06:06:49;;;;;;;;;;;12.30;99.90;;;;;;5082409;28;20119;-62
2023/08/29 06:09:14;;;;;;;4.70;3.30;;;12.30;99.90;;;;;;5073364;28;19951;-62
2023/08/29 06:11:40;;;;;;;;;;;12.40;99.90;;;;;;5083216;28;20064;-60
2023/08/29 06:14:06;;;;;;;5.80;3.70;;;12.40;99.90;;;;;;5075258;28;19921;-62
2023/08/29 06:16:31;;;;;;;;;;;12.50;99.90;;;;;;5077617;28;20035;-64
2023/08/29 06:18:57;;;;;;;8.10;6.57;;;12.60;99.90;;;;;;5079930;28;19923;-61
2023/08/29 06:21:23;;;;;;;;;;;12.60;99.90;;;;;;5074691;28;20603;-64
2023/08/29 06:23:48;;;;;;;8.77;5.30;;;12.60;99.90;;;;;;5078844;28;19912;-63
2023/08/29 06:26:15;;;;;;;;;;;12.60;99.90;;;;;;5070875;28;20040;-63
2023/08/29 06:28:41;;;;;;;8.52;4.85;;;12.70;99.90;;;;;;5076373;28;20298;-63
2023/08/29 06:31:10;;;;;;;8.40;4.65;;;12.70;99.90;;;;;;5079186;28;20035;-62
2023/08/29 06:33:38;;;;;;;9.95;5.95;;;12.70;99.90;;;;;;5083742;28;20051;-63
2023/08/29 06:36:03;;;;;;;9.50;4.80;;;12.80;99.90;;;;;;5075187;28;20538;-61
2023/08/29 06:38:32;;;;;;;;;;;12.80;99.90;;;;;;5087692;28;20035;-64
2023/08/29 06:40:58;;;;;;;9.18;5.28;;;12.80;99.90;;;;;;5072814;28;19916;-61
2023/08/29 06:43:25;;;;;;;7.78;5.10;;;12.90;99.90;;;;;;5076620;28;20040;-61
2023/08/29 06:45:50;;;;;;;9.18;5.65;;;12.90;99.90;;;;;;5084913;28;20036;-61
2023/08/29 06:48:16;;;;;;;;;;;12.90;99.90;;;;;;5075386;28;20540;-61
2023/08/29 06:50:42;;;;;;;9.07;4.97;;;12.90;99.90;;;;;;5081216;28;20399;-61
2023/08/29 06:53:07;;;;;;;;;;;13.00;99.90;;;;;;5081782;28;20043;-62
2023/08/29 06:55:34;;;;;;;8.23;4.90;;;13.00;99.90;;;;;;5080283;28;19916;-63
2023/08/29 06:58:04;;;;;;;9.32;5.22;;;13.00;99.90;;;;;;5082955;28;20043;-61
2023/08/29 07:00:31;;;;;;;9.38;5.22;;;13.10;99.90;;;;;;5068354;28;20032;-61
2023/08/29 07:02:57;;;;;;;6.97;5.15;;;13.10;99.90;;;;;;5069568;28;20835;-61
2023/08/29 07:05:23;;;;;;;9.27;5.22;;;13.10;99.90;;;;;;5079119;28;20040;-62
2023/08/29 07:07:49;;;;;;;;;;;13.10;99.90;;;;;;5071106;28;20036;-61
2023/08/29 07:10:15;;;;;;;9.38;5.68;;;13.20;99.90;;;;;;5071438;28;19920;-62
2023/08/29 07:12:42;;;;;;;10.57;6.03;;;13.20;99.90;;;;;;5074669;28;20036;-63
2023/08/29 07:15:08;;;;;;;10.30;6.97;;;13.20;99.90;;;;;;5074757;28;20075;-63
2023/08/29 07:17:35;;;;;;;8.73;6.32;;;13.30;99.90;;;;;;5076430;28;20040;-63
2023/08/29 07:20:08;;;;;;;10.27;6.05;;;13.30;99.90;;;;;;5063211;28;20143;-63
2023/08/29 07:22:38;;;;;;;10.68;6.82;;;13.30;99.90;;;;;;5067362;28;20035;-64
2023/08/29 07:25:05;;;;;;;11.18;6.38;;;13.30;99.90;;;;;;5078905;28;20029;-62
2023/08/29 07:27:31;;;;;;;13.30;7.25;;;13.30;99.90;;;;;;5079486;28;20569;-64
2023/08/29 07:29:56;;;;;;;;;;;13.40;99.90;;;;;;5067211;28;20025;-64
2023/08/29 07:32:22;;;;;;;9.23;5.97;;;13.40;99.90;;;;;;5064617;28;19920;-64
2023/08/29 07:34:47;;;;;;;;;;;13.40;99.90;;;;;;5075407;28;20036;-61
2023/08/29 07:37:13;;;;;;;8.07;6.32;;;13.40;99.90;;;;;;5070796;28;19970;-65
2023/08/29 07:39:38;;;;;;;;;;;13.40;99.90;;;;;;5075464;28;20043;-64
2023/08/29 07:42:04;;;;;;;12.02;6.30;;;13.50;99.90;;;;;;5070291;28;20007;-65
2023/08/29 07:44:31;;;;;;;9.20;6.95;;;13.40;99.90;;;;;;5076615;28;20040;-64
2023/08/29 07:46:57;;;;;;;13.60;7.25;;;13.50;99.90;;;;;;5074120;28;20032;-64
2023/08/29 07:49:22;;;;;;;;;;;13.50;99.90;;;;;;5082543;28;20044;-63
2023/08/29 07:51:51;;;;;;;10.80;6.13;;;13.50;99.90;;;;;;5069208;28;19970;-63
2023/08/29 07:54:17;;;;;;;9.18;5.82;;;13.50;99.90;;;;;;5069153;28;20039;-65
2023/08/29 07:56:42;;;;;;;;;;;13.60;99.90;;;;;;5072375;28;20032;-64
2023/08/29 07:59:08;;;;;;;7.35;4.80;;;13.60;99.90;;;;;;5078115;28;19922;-64
2023/08/29 08:01:33;;;;;;;8.43;5.53;;;13.60;99.90;;;;;;5069667;28;20101;-64
2023/08/29 08:03:59;;;;;;;;;;;13.60;99.90;;;;;;5079373;28;20028;-65
2023/08/29 08:06:25;;;;;;;6.60;4.82;;;13.70;99.90;;;;;;5069502;28;19959;-63
2023/08/29 08:08:51;;;;;;;7.47;5.05;;;13.70;99.90;;;;;;5085590;28;20032;-63
2023/08/29 08:11:16;;;;;;;;;;;13.80;99.90;;;;;;5077159;28;20086;-62
2023/08/29 08:13:42;;;;;;;9.13;5.22;;;13.80;99.90;;;;;;5078036;28;19920;-65
2023/08/29 08:16:08;;;;;;;;;;;13.90;99.90;;;;;;5081772;28;20120;-63
2023/08/29 08:18:33;;;;;;;11.10;5.50;;;13.90;99.90;;;;;;5071716;28;20368;-64
2023/08/29 08:20:59;;;;;;;;;;;13.90;99.90;;;;;;5079061;28;20806;-63
2023/08/29 08:23:24;;;;;;;7.75;5.60;;;14.00;99.90;;;;;;5078382;28;20011;-61
2023/08/29 08:25:50;;;;;;;;;;;14.00;99.90;;;;;;5082296;28;20048;-65
2023/08/29 08:28:15;;;;;;;9.35;6.75;;;14.10;99.90;;;;;;5073599;28;19924;-64
2023/08/29 08:30:41;;;;;;;;;;;14.10;99.90;;;;;;5079583;28;20522;-62
2023/08/29 08:33:07;;;;;;;12.18;6.85;;;14.20;99.90;;;;;;5085353;28;20538;-63
2023/08/29 08:35:32;;;;;;;;;;;14.20;99.90;;;;;;5077273;28;20424;-65
2023/08/29 08:37:58;;;;;;;13.27;5.30;;;14.30;99.90;;;;;;5068075;28;20426;-62
2023/08/29 08:40:24;;;;;;;8.82;5.47;;;14.40;99.90;;;;;;5073519;28;20044;-66
2023/08/29 08:42:50;;;;;;;9.00;4.78;;;14.50;99.90;;;;;;5079483;28;20082;-65
2023/08/29 08:45:17;;;;;;;;;;;14.50;99.90;;;;;;5078265;28;20079;-63
2023/08/29 08:47:43;;;;;;;6.65;5.50;;;14.50;99.90;;;;;;5078733;28;19989;-64
2023/08/29 08:50:09;;;;;;;7.53;4.95;;;14.50;99.90;;;;;;5080538;28;20051;-65
2023/08/29 08:52:38;;;;;;;6.07;5.05;;;14.50;99.90;;;;;;5082892;28;20067;-64
2023/08/29 08:55:05;;;;;;;8.38;6.18;;;14.50;99.90;;;;;;5070757;28;20075;-64
2023/08/29 08:57:31;;;;;;;10.13;6.80;;;14.50;99.90;;;;;;5070925;28;20044;-64
2023/08/29 08:59:57;;;;;;;8.85;6.28;;;14.40;99.90;;;;;;5075705;28;20067;-64
2023/08/29 09:02:24;;;;;;;;;;;14.30;99.90;;;;;;5080941;28;20068;-65
2023/08/29 09:04:50;;;;;;;12.73;8.20;;;14.40;99.90;;;;;;5073706;28;19916;-63
2023/08/29 09:07:15;;;;;;;;;;;14.40;99.90;;;;;;5075925;28;20050;-62
2023/08/29 09:09:41;;;;;;;19.02;8.98;;;14.50;99.90;;;;;;5072901;28;19916;-63
2023/08/29 09:12:07;;;;;;;15.30;10.60;;;14.50;99.90;;;;;;5072859;28;20036;-63
2023/08/29 09:14:32;;;;;;;;;;;14.50;99.90;;;;;;5082651;28;20036;-63
2023/08/29 09:17:04;;;;;;;13.02;8.85;;;14.70;99.90;;;;;;5073481;28;20381;-61
2023/08/29 09:19:33;;;;;;;13.43;8.32;;;14.80;99.90;;;;;;5080721;28;20567;-62
2023/08/29 09:21:59;;;;;;;17.13;8.77;;;14.90;99.90;;;;;;5079410;28;20043;-62
2023/08/29 09:24:31;;;;;;;13.63;8.88;;;14.80;99.90;;;;;;5081405;28;20036;-63
2023/08/29 09:26:57;;;;;;;15.32;8.27;;;14.70;99.90;;;;;;5069602;28;20127;-62
2023/08/29 09:29:24;;;;;;;;;;;14.80;99.90;;;;;;5077566;28;20504;-64
2023/08/29 09:31:50;;;;;;;16.17;7.75;;;14.70;99.90;;;;;;5077903;28;20098;-64
2023/08/29 09:34:25;;;;;;;;;;;14.70;99.90;;;;;;5069227;28;20107;-63
2023/08/29 09:36:50;;;;;;;11.35;7.05;;;14.70;99.90;;;;;;5074300;28;21041;-63
2023/08/29 09:39:16;;;;;;;;;;;14.80;99.90;;;;;;5078735;28;20085;-69
2023/08/29 09:41:41;;;;;;;13.77;7.28;;;14.80;99.90;;;;;;5083976;28;19916;-62
2023/08/29 09:44:13;;;;;;;;;;;14.80;99.90;;;;;;5077678;28;20594;-62
2023/08/29 09:46:44;;;;;;;13.07;5.60;;;14.70;99.90;;;;;;5076772;28;19920;-64
2023/08/29 09:49:10;;;;;;;8.70;5.82;;;14.70;99.90;;;;;;5076815;28;20127;-63
2023/08/29 09:51:37;;;;;;;;;;;14.80;99.90;;;;;;5062789;28;20322;-65
2023/08/29 09:54:07;;;;;;;11.13;5.55;;;14.90;99.90;;;;;;5072552;28;20520;-67
2023/08/29 09:56:35;;;;;;;9.85;5.40;;;15.00;99.90;;;;;;5072746;28;20054;-63
2023/08/29 09:59:02;;;;;;;8.60;5.57;;;15.10;99.90;;;;;;5067135;28;20184;-61
2023/08/29 10:01:27;;;;;;;12.05;6.18;;;15.10;99.90;;;;;;5073248;28;20503;-60
2023/08/29 10:03:53;;;;;;;;;;;15.20;99.90;;;;;;5082913;28;20086;-62
2023/08/29 10:06:20;;;;;;;6.93;4.35;;;15.20;99.90;;;;;;5079886;28;19920;-62
2023/08/29 10:08:59;;;;;;;10.63;5.00;;;15.20;99.90;;;;;;5073905;28;20036;-62
2023/08/29 10:11:26;;;;;;;9.40;5.68;;;15.10;99.90;;;;;;5082170;28;20135;-61
2023/08/29 10:13:53;;;;;;;8.90;5.25;;;15.00;99.90;;;;;;5071155;28;20085;-62
2023/08/29 10:16:19;;;;;;;9.13;4.63;;;15.10;99.90;;;;;;5072908;28;20067;-62
2023/08/29 10:18:46;;;;;;;9.73;6.53;;;15.00;99.90;;;;;;5072498;28;20036;-63
2023/08/29 10:21:14;;;;;;;8.20;6.03;;;14.90;99.90;;;;;;5086437;28;20039;-63
2023/08/29 10:23:40;;;;;;;11.90;6.15;;;14.80;99.90;;;;;;5074857;28;20044;-62
2023/08/29 10:26:06;;;;;;;13.65;5.28;;;14.80;99.90;;;;;;5083389;28;20056;-62
2023/08/29 10:28:34;;;;;;;;;;;14.80;99.90;;;;;;5080703;28;20032;-62
2023/08/29 10:31:02;;;;;;;10.68;5.00;;;14.80;99.90;;;;;;5064110;28;19928;-60
2023/08/29 10:33:28;;;;;;;8.50;6.03;;;14.90;99.90;;;;;;5079311;28;20036;-61
2023/08/29 10:35:53;;;;;;;;;;;14.90;99.90;;;;;;5075543;28;20550;-62
2023/08/29 10:38:19;;;;;;;11.48;7.80;;;14.90;99.90;;;;;;5082069;28;19966;-61
2023/08/29 10:40:48;;;;;;;8.95;6.57;;;14.90;99.90;;;;;;5073861;28;20115;-61
2023/08/29 10:43:24;;;;;;;14.02;6.75;;;14.80;99.90;;;;;;5072434;28;20053;-62
2023/08/29 10:45:56;;;;;;;12.23;6.47;;;14.70;99.90;;;;;;5043016;28;20040;-61
2023/08/29 10:48:46;;;;;;;13.88;7.57;;;14.70;99.90;;;;;;5072850;28;20059;-60
2023/08/29 10:51:15;;;;;;;13.27;7.38;;;14.70;99.90;;;;;;5068036;28;20125;-62
2023/08/29 10:53:47;;;;;;;17.10;7.22;;;14.60;99.90;;;;;;5070652;28;20062;-62
2023/08/29 10:56:15;;;;;;;10.75;6.63;;;14.50;99.90;;;;;;5078147;28;20044;-63
2023/08/29 10:58:42;;;;;;;8.85;6.50;;;14.50;99.90;;;;;;5071336;28;20039;-63
2023/08/29 11:01:30;;;;;;;12.18;5.97;;;14.50;99.90;;;;;;5071149;28;20047;-63
2023/08/29 11:03:57;;;;;;;8.80;6.40;;;14.60;99.90;;;;;;5078240;28;20044;-63
2023/08/29 11:06:47;;;;;;;9.95;6.65;;;14.50;99.90;;;;;;5076292;28;20057;-63
2023/08/29 11:09:20;;;;;;;10.20;5.72;;;14.50;99.90;;;;;;5075111;28;20652;-63
2023/08/29 11:12:09;;;;;;;10.02;6.22;;;14.60;99.90;;;;;;5073736;28;20052;-64
2023/08/29 11:14:55;;;;;;;9.35;5.82;;;14.50;99.90;;;;;;5083162;28;20075;-63
2023/08/29 11:17:24;;;;;;;12.55;6.13;;;14.50;99.90;;;;;;5071238;28;20143;-63
2023/08/29 11:19:57;;;;;;;10.43;5.88;;;14.60;99.90;;;;;;5064832;28;20044;-63
2023/08/29 11:22:29;;;;;;;12.35;6.47;;;14.70;99.90;;;;;;5068172;28;20105;-63
2023/08/29 11:24:55;;;;;;;7.90;5.55;;;14.70;99.90;;;;;;5076402;28;20036;-63
2023/08/29 11:27:31;;;;;;;11.07;6.18;;;14.80;99.90;;;;;;5075743;28;20042;-63
2023/08/29 11:30:02;;;;;;;13.63;6.63;;;14.80;99.90;;;;;;5074124;28;20075;-63
2023/08/29 11:32:30;;;;;;;12.85;5.93;;;14.80;99.90;;;;;;5074988;28;20040;-63
2023/08/29 11:34:56;;;;;;;9.20;5.97;;;14.80;99.90;;;;;;5072242;28;20063;-63
2023/08/29 11:37:24;;;;;;;;;;;14.80;99.90;;;;;;5065443;28;20044;-64
2023/08/29 11:39:56;;;;;;;8.57;5.95;;;15.00;99.90;;;;;;5076313;28;19950;-62
2023/08/29 11:42:22;;;;;;;9.27;5.38;;;15.00;99.90;;;;;;5076875;28;20032;-62
2023/08/29 11:44:53;;;;;;;7.97;5.68;;;15.00;99.90;;;;;;5081115;28;20035;-63
2023/08/29 11:47:18;;;;;;;19.20;7.10;;;15.00;99.90;;;;;;5073124;28;20097;-63
2023/08/29 11:49:49;;;;;;;;;;;15.00;99.90;;;;;;5074767;28;20032;-63
2023/08/29 11:52:16;;;;;;;8.50;6.00;;;15.00;99.90;;;;;;5073140;28;20137;-63
2023/08/29 11:54:50;;;;;;;9.45;6.18;;;15.10;99.90;;;;;;5082821;28;20092;-61
2023/08/29 11:57:16;;;;;;;7.82;5.82;;;15.10;99.90;;;;;;5070472;28;20061;-61
2023/08/29 11:59:43;;;;;;;;;;;15.20;99.90;;;;;;5065709;28;20071;-61
2023/08/29 12:02:13;;;;;;;8.73;5.63;;;15.20;99.90;;;;;;5061576;28;19920;-61
2023/08/29 12:04:46;;;;;;;7.07;5.75;;;15.20;99.90;;;;;;5069775;28;20051;-63
2023/08/29 12:07:16;;;;;;;8.68;5.85;;;15.30;99.90;;;;;;5070911;28;20483;-61
2023/08/29 12:09:44;;;;;;;9.10;6.50;;;15.30;99.90;;;;;;5066535;28;20041;-62
2023/08/29 12:12:35;;;;;;;9.45;5.80;;;15.20;99.90;;;;;;5071832;28;20047;-61
2023/08/29 12:15:05;;;;;;;8.35;5.25;;;15.20;99.90;;;;;;5078089;28;20123;-61
2023/08/29 12:17:33;;;;;;;8.15;5.95;;;15.20;99.90;;;;;;5082303;28;20122;-62
2023/08/29 12:19:59;;;;;;;8.25;5.78;;;15.10;99.90;;;;;;5075585;28;20044;-62
2023/08/29 12:22:31;;;;;;;;;;;15.00;99.90;;;;;;5086117;28;20527;-62
2023/08/29 12:24:59;;;;;;;;;;;15.10;99.90;;;;;;5077390;28;19947;-63
2023/08/29 12:27:25;;;;;;;;;;;15.00;99.90;;;;;;5077678;28;20432;-63
2023/08/29 12:29:50;;;;;;;;;;;15.00;99.90;;;;;;5065990;28;19916;-62
2023/08/29 12:32:16;;;;;;;;;;;15.00;99.90;;;;;;5070147;28;20467;-63
2023/08/29 12:34:43;;;;;;;;;;;15.00;99.90;;;;;;5080334;28;20287;-63
2023/08/29 12:37:09;;;;;;;;;;;14.90;99.90;;;;;;5075272;28;19916;-63
2023/08/29 12:39:35;;;;;;;;;;;14.90;99.90;;;;;;5080490;28;20440;-63
2023/08/29 12:42:01;;;;;;;;;;;15.00;99.90;;;;;;5075020;28;20461;-63
2023/08/29 12:44:26;;;;;;;;;;;15.00;99.90;;;;;;5076102;28;19963;-62
2023/08/29 12:46:52;;;;;;;;;;;15.00;99.90;;;;;;5075960;28;20022;-61
2023/08/29 12:49:17;;;;;;;;;;;15.10;99.90;;;;;;5081899;28;19927;-60
2023/08/29 12:51:44;;;;;;;;;;;15.10;99.90;;;;;;5073590;28;20384;-60
2023/08/29 12:54:09;;;;;;;;;;;15.10;99.90;;;;;;5067519;28;19999;-61
2023/08/29 12:56:35;;;;;;;;;;;15.20;99.90;;;;;;5085619;28;20647;-62
2023/08/29 12:59:00;;;;;;;;;;;15.20;99.90;;;;;;5077589;28;19912;-62
2023/08/29 13:01:27;;;;;;;;;;;15.20;99.90;;;;;;5085719;28;20700;-61
2023/08/29 13:03:54;;;;;;;;;;;15.30;99.90;;;;;;5082221;28;20400;-60
2023/08/29 13:06:20;;;;;;;;;;;15.30;99.90;;;;;;5076891;28;19935;-62
2023/08/29 13:08:46;;;;;;;;;;;15.30;99.90;;;;;;5083065;28;19912;-62
2023/08/29 13:11:11;;;;;;;;;;;15.40;99.90;;;;;;5078144;28;19919;-62
2023/08/29 13:13:37;;;;;;;;;;;15.40;99.90;;;;;;5082579;28;20032;-65